sensor_id;sensor_type;location;lat;lon;timestamp;P1;durP1;ratioP1;P2;durP2;ratioP2
27365;SDS011;14837;57.148;-2.144;2023-03-23T00:01:10;19.92;;;6.47;;
27365;SDS011;14837;57.148;-2.144;2023-03-23T00:03:36;13.30;;;3.50;;
27365;SDS011;14837;57.148;-2.144;2023-03-23T00:06:02;16.63;;;3.75;;
27365;SDS011;14837;57.148;-2.144;2023-03-23T00:08:30;13.27;;;3.72;;
27365;SDS011;14837;57.148;-2.144;2023-03-23T00:10:56;15.45;;;3.88;;
27365;SDS011;14837;57.148;-2.144;2023-03-23T00:13:26;13.68;;;3.38;;
27365;SDS011;14837;57.148;-2.144;2023-03-23T00:15:52;13.93;;;3.35;;
27365;SDS011;14837;57.148;-2.144;2023-03-23T00:18:20;19.38;;;4.95;;
27365;SDS011;14837;57.148;-2.144;2023-03-23T00:20:50;15.60;;;4.63;;
27365;SDS011;14837;57.148;-2.144;2023-03-23T00:23:19;18.45;;;3.80;;
27365;SDS011;14837;57.148;-2.144;2023-03-23T00:25:47;22.30;;;3.70;;
27365;SDS011;14837;57.148;-2.144;2023-03-23T00:28:13;15.23;;;4.03;;
27365;SDS011;14837;57.148;-2.144;2023-03-23T00:30:39;12.23;;;2.85;;
27365;SDS011;14837;57.148;-2.144;2023-03-23T00:33:07;11.57;;;3.75;;
27365;SDS011;14837;57.148;-2.144;2023-03-23T00:35:32;14.60;;;3.83;;
27365;SDS011;14837;57.148;-2.144;2023-03-23T00:37:58;15.50;;;4.63;;
27365;SDS011;14837;57.148;-2.144;2023-03-23T00:40:24;13.82;;;4.13;;
27365;SDS011;14837;57.148;-2.144;2023-03-23T00:42:49;14.43;;;3.92;;
27365;SDS011;14837;57.148;-2.144;2023-03-23T00:45:15;13.30;;;3.28;;
27365;SDS011;14837;57.148;-2.144;2023-03-23T00:47:41;16.17;;;3.85;;
27365;SDS011;14837;57.148;-2.144;2023-03-23T00:50:11;15.88;;;3.78;;
27365;SDS011;14837;57.148;-2.144;2023-03-23T00:52:38;14.93;;;3.78;;
27365;SDS011;14837;57.148;-2.144;2023-03-23T00:55:03;19.42;;;3.75;;
27365;SDS011;14837;57.148;-2.144;2023-03-23T00:57:29;19.42;;;5.55;;
27365;SDS011;14837;57.148;-2.144;2023-03-23T00:59:54;11.25;;;3.42;;
27365;SDS011;14837;57.148;-2.144;2023-03-23T01:02:20;10.10;;;3.42;;
27365;SDS011;14837;57.148;-2.144;2023-03-23T01:04:49;12.45;;;3.42;;
27365;SDS011;14837;57.148;-2.144;2023-03-23T01:07:17;10.82;;;3.13;;
27365;SDS011;14837;57.148;-2.144;2023-03-23T01:09:43;14.35;;;4.13;;
27365;SDS011;14837;57.148;-2.144;2023-03-23T01:12:10;9.63;;;3.10;;
27365;SDS011;14837;57.148;-2.144;2023-03-23T01:14:35;19.38;;;4.43;;
27365;SDS011;14837;57.148;-2.144;2023-03-23T01:17:01;10.73;;;3.97;;
27365;SDS011;14837;57.148;-2.144;2023-03-23T01:19:26;9.15;;;2.78;;
27365;SDS011;14837;57.148;-2.144;2023-03-23T01:21:52;16.95;;;4.35;;
27365;SDS011;14837;57.148;-2.144;2023-03-23T01:24:17;16.83;;;3.88;;
27365;SDS011;14837;57.148;-2.144;2023-03-23T01:26:42;12.93;;;5.28;;
27365;SDS011;14837;57.148;-2.144;2023-03-23T01:29:08;21.20;;;4.55;;
27365;SDS011;14837;57.148;-2.144;2023-03-23T01:31:33;13.65;;;3.03;;
27365;SDS011;14837;57.148;-2.144;2023-03-23T01:34:01;7.82;;;3.33;;
27365;SDS011;14837;57.148;-2.144;2023-03-23T01:36:27;14.88;;;3.78;;
27365;SDS011;14837;57.148;-2.144;2023-03-23T01:38:54;15.57;;;4.43;;
27365;SDS011;14837;57.148;-2.144;2023-03-23T01:41:20;13.38;;;4.25;;
27365;SDS011;14837;57.148;-2.144;2023-03-23T01:43:53;16.98;;;4.47;;
27365;SDS011;14837;57.148;-2.144;2023-03-23T01:46:18;13.20;;;4.55;;
27365;SDS011;14837;57.148;-2.144;2023-03-23T01:48:44;18.40;;;4.20;;
27365;SDS011;14837;57.148;-2.144;2023-03-23T01:51:13;16.77;;;4.80;;
27365;SDS011;14837;57.148;-2.144;2023-03-23T01:53:42;13.23;;;3.75;;
27365;SDS011;14837;57.148;-2.144;2023-03-23T01:56:09;11.50;;;4.63;;
27365;SDS011;14837;57.148;-2.144;2023-03-23T01:58:37;11.02;;;4.13;;
27365;SDS011;14837;57.148;-2.144;2023-03-23T02:01:07;11.68;;;4.13;;
27365;SDS011;14837;57.148;-2.144;2023-03-23T02:03:37;11.73;;;3.13;;
27365;SDS011;14837;57.148;-2.144;2023-03-23T02:06:03;16.10;;;4.18;;
27365;SDS011;14837;57.148;-2.144;2023-03-23T02:08:29;14.63;;;4.13;;
27365;SDS011;14837;57.148;-2.144;2023-03-23T02:10:57;15.15;;;3.45;;
27365;SDS011;14837;57.148;-2.144;2023-03-23T02:13:23;11.07;;;3.15;;
27365;SDS011;14837;57.148;-2.144;2023-03-23T02:21:16;16.38;;;3.35;;
27365;SDS011;14837;57.148;-2.144;2023-03-23T02:41:18;6.65;;;2.22;;
27365;SDS011;14837;57.148;-2.144;2023-03-23T02:43:46;5.80;;;2.40;;
27365;SDS011;14837;57.148;-2.144;2023-03-23T02:46:12;6.93;;;2.72;;
27365;SDS011;14837;57.148;-2.144;2023-03-23T02:48:38;6.55;;;1.83;;
27365;SDS011;14837;57.148;-2.144;2023-03-23T02:51:05;8.60;;;2.55;;
27365;SDS011;14837;57.148;-2.144;2023-03-23T02:53:33;7.45;;;1.85;;
27365;SDS011;14837;57.148;-2.144;2023-03-23T02:55:59;6.85;;;2.42;;
27365;SDS011;14837;57.148;-2.144;2023-03-23T02:58:28;5.85;;;1.52;;
27365;SDS011;14837;57.148;-2.144;2023-03-23T03:00:53;10.27;;;2.15;;
27365;SDS011;14837;57.148;-2.144;2023-03-23T03:03:22;10.70;;;2.20;;
27365;SDS011;14837;57.148;-2.144;2023-03-23T03:06:07;7.65;;;1.92;;
27365;SDS011;14837;57.148;-2.144;2023-03-23T03:08:40;7.88;;;1.45;;
27365;SDS011;14837;57.148;-2.144;2023-03-23T03:11:13;6.25;;;1.00;;
27365;SDS011;14837;57.148;-2.144;2023-03-23T03:13:53;4.70;;;1.73;;
27365;SDS011;14837;57.148;-2.144;2023-03-23T03:16:24;4.03;;;1.05;;
27365;SDS011;14837;57.148;-2.144;2023-03-23T03:21:30;2.13;;;0.88;;
27365;SDS011;14837;57.148;-2.144;2023-03-23T03:23:56;1.42;;;0.65;;
27365;SDS011;14837;57.148;-2.144;2023-03-23T03:26:26;0.75;;;0.68;;
27365;SDS011;14837;57.148;-2.144;2023-03-23T03:28:53;1.95;;;0.50;;
27365;SDS011;14837;57.148;-2.144;2023-03-23T03:31:20;1.40;;;0.40;;
27365;SDS011;14837;57.148;-2.144;2023-03-23T03:33:46;1.52;;;0.50;;
27365;SDS011;14837;57.148;-2.144;2023-03-23T03:36:21;1.20;;;0.50;;
27365;SDS011;14837;57.148;-2.144;2023-03-23T03:38:49;0.80;;;0.38;;
27365;SDS011;14837;57.148;-2.144;2023-03-23T03:41:15;2.30;;;0.50;;
27365;SDS011;14837;57.148;-2.144;2023-03-23T03:43:41;1.02;;;0.30;;
27365;SDS011;14837;57.148;-2.144;2023-03-23T03:46:06;0.75;;;0.40;;
27365;SDS011;14837;57.148;-2.144;2023-03-23T03:48:32;0.55;;;0.40;;
27365;SDS011;14837;57.148;-2.144;2023-03-23T03:50:57;1.30;;;0.40;;
27365;SDS011;14837;57.148;-2.144;2023-03-23T03:53:25;0.43;;;0.43;;
27365;SDS011;14837;57.148;-2.144;2023-03-23T03:55:51;0.20;;;0.20;;
27365;SDS011;14837;57.148;-2.144;2023-03-23T03:58:21;0.30;;;0.30;;
27365;SDS011;14837;57.148;-2.144;2023-03-23T04:00:46;0.20;;;0.20;;
27365;SDS011;14837;57.148;-2.144;2023-03-23T04:03:13;0.20;;;0.20;;
27365;SDS011;14837;57.148;-2.144;2023-03-23T04:05:38;0.35;;;0.30;;
27365;SDS011;14837;57.148;-2.144;2023-03-23T04:08:04;0.22;;;0.22;;
27365;SDS011;14837;57.148;-2.144;2023-03-23T04:10:30;0.20;;;0.20;;
27365;SDS011;14837;57.148;-2.144;2023-03-23T04:12:56;0.20;;;0.20;;
27365;SDS011;14837;57.148;-2.144;2023-03-23T04:15:22;0.20;;;0.20;;
27365;SDS011;14837;57.148;-2.144;2023-03-23T04:17:47;0.20;;;0.17;;
27365;SDS011;14837;57.148;-2.144;2023-03-23T04:20:12;0.28;;;0.28;;
27365;SDS011;14837;57.148;-2.144;2023-03-23T04:22:45;0.57;;;0.28;;
27365;SDS011;14837;57.148;-2.144;2023-03-23T04:25:14;0.20;;;0.20;;
27365;SDS011;14837;57.148;-2.144;2023-03-23T04:27:40;1.75;;;0.25;;
27365;SDS011;14837;57.148;-2.144;2023-03-23T04:30:11;0.40;;;0.20;;
27365;SDS011;14837;57.148;-2.144;2023-03-23T04:32:38;0.20;;;0.20;;
27365;SDS011;14837;57.148;-2.144;2023-03-23T04:35:07;0.13;;;0.13;;
27365;SDS011;14837;57.148;-2.144;2023-03-23T04:37:32;1.08;;;0.20;;
27365;SDS011;14837;57.148;-2.144;2023-03-23T04:39:59;0.10;;;0.10;;
27365;SDS011;14837;57.148;-2.144;2023-03-23T04:42:29;0.20;;;0.20;;
27365;SDS011;14837;57.148;-2.144;2023-03-23T04:44:55;0.20;;;0.20;;
27365;SDS011;14837;57.148;-2.144;2023-03-23T04:47:20;0.20;;;0.20;;
27365;SDS011;14837;57.148;-2.144;2023-03-23T04:49:46;0.75;;;0.30;;
27365;SDS011;14837;57.148;-2.144;2023-03-23T04:52:11;0.30;;;0.30;;
27365;SDS011;14837;57.148;-2.144;2023-03-23T04:54:36;0.30;;;0.30;;
27365;SDS011;14837;57.148;-2.144;2023-03-23T04:57:03;0.32;;;0.32;;
27365;SDS011;14837;57.148;-2.144;2023-03-23T04:59:28;0.22;;;0.20;;
27365;SDS011;14837;57.148;-2.144;2023-03-23T05:01:56;0.50;;;0.20;;
27365;SDS011;14837;57.148;-2.144;2023-03-23T05:04:21;0.20;;;0.20;;
27365;SDS011;14837;57.148;-2.144;2023-03-23T05:06:48;0.47;;;0.38;;
27365;SDS011;14837;57.148;-2.144;2023-03-23T05:09:13;0.75;;;0.28;;
27365;SDS011;14837;57.148;-2.144;2023-03-23T05:11:39;0.45;;;0.35;;
27365;SDS011;14837;57.148;-2.144;2023-03-23T05:14:04;0.40;;;0.40;;
27365;SDS011;14837;57.148;-2.144;2023-03-23T05:16:30;0.20;;;0.20;;
27365;SDS011;14837;57.148;-2.144;2023-03-23T05:18:56;0.28;;;0.28;;
27365;SDS011;14837;57.148;-2.144;2023-03-23T05:21:24;0.20;;;0.20;;
27365;SDS011;14837;57.148;-2.144;2023-03-23T05:23:49;0.40;;;0.40;;
27365;SDS011;14837;57.148;-2.144;2023-03-23T05:26:22;0.20;;;0.20;;
27365;SDS011;14837;57.148;-2.144;2023-03-23T05:28:54;0.20;;;0.20;;
27365;SDS011;14837;57.148;-2.144;2023-03-23T05:31:21;0.90;;;0.22;;
27365;SDS011;14837;57.148;-2.144;2023-03-23T05:33:46;0.20;;;0.20;;
27365;SDS011;14837;57.148;-2.144;2023-03-23T05:36:12;0.30;;;0.30;;
27365;SDS011;14837;57.148;-2.144;2023-03-23T05:38:39;0.20;;;0.20;;
27365;SDS011;14837;57.148;-2.144;2023-03-23T05:41:07;1.65;;;0.20;;
27365;SDS011;14837;57.148;-2.144;2023-03-23T05:43:33;0.20;;;0.20;;
27365;SDS011;14837;57.148;-2.144;2023-03-23T05:45:58;0.68;;;0.40;;
27365;SDS011;14837;57.148;-2.144;2023-03-23T05:48:23;0.40;;;0.40;;
27365;SDS011;14837;57.148;-2.144;2023-03-23T05:50:49;0.50;;;0.30;;
27365;SDS011;14837;57.148;-2.144;2023-03-23T05:53:15;0.30;;;0.30;;
27365;SDS011;14837;57.148;-2.144;2023-03-23T05:55:41;0.20;;;0.20;;
27365;SDS011;14837;57.148;-2.144;2023-03-23T05:58:06;0.30;;;0.30;;
27365;SDS011;14837;57.148;-2.144;2023-03-23T06:00:32;0.28;;;0.28;;
27365;SDS011;14837;57.148;-2.144;2023-03-23T06:02:58;0.20;;;0.20;;
27365;SDS011;14837;57.148;-2.144;2023-03-23T06:05:23;1.15;;;0.30;;
27365;SDS011;14837;57.148;-2.144;2023-03-23T06:07:50;0.20;;;0.20;;
27365;SDS011;14837;57.148;-2.144;2023-03-23T06:10:17;0.22;;;0.22;;
27365;SDS011;14837;57.148;-2.144;2023-03-23T06:12:42;0.20;;;0.20;;
27365;SDS011;14837;57.148;-2.144;2023-03-23T06:15:09;0.35;;;0.30;;
27365;SDS011;14837;57.148;-2.144;2023-03-23T06:17:34;0.95;;;0.30;;
27365;SDS011;14837;57.148;-2.144;2023-03-23T06:20:01;0.43;;;0.30;;
27365;SDS011;14837;57.148;-2.144;2023-03-23T06:22:29;1.65;;;0.40;;
27365;SDS011;14837;57.148;-2.144;2023-03-23T06:24:54;0.63;;;0.30;;
27365;SDS011;14837;57.148;-2.144;2023-03-23T06:27:22;3.22;;;0.47;;
27365;SDS011;14837;57.148;-2.144;2023-03-23T06:29:47;0.85;;;0.50;;
27365;SDS011;14837;57.148;-2.144;2023-03-23T06:32:13;0.35;;;0.30;;
27365;SDS011;14837;57.148;-2.144;2023-03-23T06:34:40;2.17;;;0.70;;
27365;SDS011;14837;57.148;-2.144;2023-03-23T06:37:08;0.52;;;0.45;;
27365;SDS011;14837;57.148;-2.144;2023-03-23T06:39:34;2.33;;;0.70;;
27365;SDS011;14837;57.148;-2.144;2023-03-23T06:42:01;0.38;;;0.32;;
27365;SDS011;14837;57.148;-2.144;2023-03-23T06:44:27;0.73;;;0.45;;
27365;SDS011;14837;57.148;-2.144;2023-03-23T06:46:52;2.05;;;0.60;;
27365;SDS011;14837;57.148;-2.144;2023-03-23T06:49:18;1.92;;;0.50;;
27365;SDS011;14837;57.148;-2.144;2023-03-23T06:51:44;0.50;;;0.40;;
27365;SDS011;14837;57.148;-2.144;2023-03-23T06:54:09;2.78;;;0.80;;
27365;SDS011;14837;57.148;-2.144;2023-03-23T06:56:34;2.03;;;0.40;;
27365;SDS011;14837;57.148;-2.144;2023-03-23T06:59:00;0.93;;;0.55;;
27365;SDS011;14837;57.148;-2.144;2023-03-23T07:01:25;1.30;;;0.70;;
27365;SDS011;14837;57.148;-2.144;2023-03-23T07:03:53;0.65;;;0.63;;
27365;SDS011;14837;57.148;-2.144;2023-03-23T07:06:18;1.10;;;0.43;;
27365;SDS011;14837;57.148;-2.144;2023-03-23T07:08:44;2.85;;;0.50;;
27365;SDS011;14837;57.148;-2.144;2023-03-23T07:11:10;1.08;;;0.43;;
27365;SDS011;14837;57.148;-2.144;2023-03-23T07:13:35;0.82;;;0.50;;
27365;SDS011;14837;57.148;-2.144;2023-03-23T07:16:03;1.08;;;0.52;;
27365;SDS011;14837;57.148;-2.144;2023-03-23T07:18:29;1.65;;;0.40;;
27365;SDS011;14837;57.148;-2.144;2023-03-23T07:20:54;3.15;;;0.68;;
27365;SDS011;14837;57.148;-2.144;2023-03-23T07:23:20;0.95;;;0.47;;
27365;SDS011;14837;57.148;-2.144;2023-03-23T07:25:45;1.65;;;0.70;;
27365;SDS011;14837;57.148;-2.144;2023-03-23T07:28:11;1.38;;;0.40;;
27365;SDS011;14837;57.148;-2.144;2023-03-23T07:30:37;0.85;;;0.60;;
27365;SDS011;14837;57.148;-2.144;2023-03-23T07:33:06;1.63;;;0.77;;
27365;SDS011;14837;57.148;-2.144;2023-03-23T07:35:31;4.13;;;0.60;;
27365;SDS011;14837;57.148;-2.144;2023-03-23T07:37:57;1.63;;;0.57;;
27365;SDS011;14837;57.148;-2.144;2023-03-23T07:40:22;3.00;;;0.50;;
27365;SDS011;14837;57.148;-2.144;2023-03-23T07:42:51;2.75;;;0.63;;
27365;SDS011;14837;57.148;-2.144;2023-03-23T07:45:17;1.13;;;0.60;;
27365;SDS011;14837;57.148;-2.144;2023-03-23T07:47:42;2.83;;;0.90;;
27365;SDS011;14837;57.148;-2.144;2023-03-23T07:50:08;0.88;;;0.60;;
27365;SDS011;14837;57.148;-2.144;2023-03-23T07:52:34;5.45;;;0.90;;
27365;SDS011;14837;57.148;-2.144;2023-03-23T07:54:59;3.63;;;0.80;;
27365;SDS011;14837;57.148;-2.144;2023-03-23T07:57:27;2.72;;;0.65;;
27365;SDS011;14837;57.148;-2.144;2023-03-23T07:59:52;2.28;;;0.50;;
27365;SDS011;14837;57.148;-2.144;2023-03-23T08:02:18;0.82;;;0.47;;
27365;SDS011;14837;57.148;-2.144;2023-03-23T08:04:43;2.85;;;1.05;;
27365;SDS011;14837;57.148;-2.144;2023-03-23T08:07:10;3.58;;;0.80;;
27365;SDS011;14837;57.148;-2.144;2023-03-23T08:09:37;3.15;;;0.88;;
27365;SDS011;14837;57.148;-2.144;2023-03-23T08:12:04;2.97;;;0.80;;
27365;SDS011;14837;57.148;-2.144;2023-03-23T08:14:29;2.28;;;0.52;;
27365;SDS011;14837;57.148;-2.144;2023-03-23T08:16:55;1.27;;;0.70;;
27365;SDS011;14837;57.148;-2.144;2023-03-23T08:19:21;5.15;;;1.50;;
27365;SDS011;14837;57.148;-2.144;2023-03-23T08:21:47;4.57;;;0.82;;
27365;SDS011;14837;57.148;-2.144;2023-03-23T08:24:13;3.30;;;0.95;;
27365;SDS011;14837;57.148;-2.144;2023-03-23T08:26:38;3.42;;;1.35;;
27365;SDS011;14837;57.148;-2.144;2023-03-23T08:29:04;2.10;;;0.60;;
27365;SDS011;14837;57.148;-2.144;2023-03-23T08:31:31;4.85;;;0.70;;
27365;SDS011;14837;57.148;-2.144;2023-03-23T08:33:58;1.85;;;1.00;;
27365;SDS011;14837;57.148;-2.144;2023-03-23T08:36:23;3.00;;;1.25;;
27365;SDS011;14837;57.148;-2.144;2023-03-23T08:38:49;2.30;;;0.73;;
27365;SDS011;14837;57.148;-2.144;2023-03-23T08:41:16;1.90;;;0.70;;
27365;SDS011;14837;57.148;-2.144;2023-03-23T08:43:42;2.83;;;0.70;;
27365;SDS011;14837;57.148;-2.144;2023-03-23T08:46:09;2.13;;;0.80;;
27365;SDS011;14837;57.148;-2.144;2023-03-23T08:48:35;3.85;;;0.85;;
27365;SDS011;14837;57.148;-2.144;2023-03-23T08:51:02;1.55;;;0.55;;
27365;SDS011;14837;57.148;-2.144;2023-03-23T08:53:28;1.33;;;0.60;;
27365;SDS011;14837;57.148;-2.144;2023-03-23T08:55:56;1.13;;;0.65;;
27365;SDS011;14837;57.148;-2.144;2023-03-23T08:58:22;1.67;;;0.50;;
27365;SDS011;14837;57.148;-2.144;2023-03-23T09:00:47;1.27;;;0.63;;
27365;SDS011;14837;57.148;-2.144;2023-03-23T09:03:13;1.95;;;0.60;;
27365;SDS011;14837;57.148;-2.144;2023-03-23T09:05:38;6.85;;;0.90;;
27365;SDS011;14837;57.148;-2.144;2023-03-23T09:08:08;3.42;;;0.90;;
27365;SDS011;14837;57.148;-2.144;2023-03-23T09:10:33;0.75;;;0.52;;
27365;SDS011;14837;57.148;-2.144;2023-03-23T09:12:59;1.35;;;0.60;;
27365;SDS011;14837;57.148;-2.144;2023-03-23T09:15:24;2.60;;;0.80;;
27365;SDS011;14837;57.148;-2.144;2023-03-23T09:17:50;4.07;;;0.95;;
27365;SDS011;14837;57.148;-2.144;2023-03-23T09:20:17;4.07;;;0.90;;
27365;SDS011;14837;57.148;-2.144;2023-03-23T09:22:46;3.83;;;1.17;;
27365;SDS011;14837;57.148;-2.144;2023-03-23T09:25:13;2.55;;;1.10;;
27365;SDS011;14837;57.148;-2.144;2023-03-23T09:27:39;2.75;;;0.93;;
27365;SDS011;14837;57.148;-2.144;2023-03-23T09:30:06;1.38;;;0.60;;
27365;SDS011;14837;57.148;-2.144;2023-03-23T09:32:35;2.55;;;0.80;;
27365;SDS011;14837;57.148;-2.144;2023-03-23T09:35:01;4.38;;;1.20;;
27365;SDS011;14837;57.148;-2.144;2023-03-23T09:37:27;2.45;;;0.60;;
27365;SDS011;14837;57.148;-2.144;2023-03-23T09:39:53;4.82;;;1.02;;
27365;SDS011;14837;57.148;-2.144;2023-03-23T09:42:23;1.85;;;0.70;;
27365;SDS011;14837;57.148;-2.144;2023-03-23T09:45:06;4.78;;;1.15;;
27365;SDS011;14837;57.148;-2.144;2023-03-23T09:47:54;1.95;;;0.75;;
27365;SDS011;14837;57.148;-2.144;2023-03-23T09:50:22;2.28;;;0.55;;
27365;SDS011;14837;57.148;-2.144;2023-03-23T09:53:12;2.45;;;0.98;;
27365;SDS011;14837;57.148;-2.144;2023-03-23T09:55:34;1.98;;;0.57;;
27365;SDS011;14837;57.148;-2.144;2023-03-23T09:58:12;1.85;;;0.80;;
27365;SDS011;14837;57.148;-2.144;2023-03-23T10:00:40;4.50;;;0.88;;
27365;SDS011;14837;57.148;-2.144;2023-03-23T10:03:14;1.98;;;1.25;;
27365;SDS011;14837;57.148;-2.144;2023-03-23T10:05:41;3.72;;;0.98;;
27365;SDS011;14837;57.148;-2.144;2023-03-23T10:08:18;1.33;;;0.55;;
27365;SDS011;14837;57.148;-2.144;2023-03-23T10:16:10;1.48;;;0.68;;
27365;SDS011;14837;57.148;-2.144;2023-03-23T10:18:43;1.52;;;0.85;;
27365;SDS011;14837;57.148;-2.144;2023-03-23T10:21:13;1.27;;;0.77;;
27365;SDS011;14837;57.148;-2.144;2023-03-23T10:28:54;2.15;;;0.68;;
27365;SDS011;14837;57.148;-2.144;2023-03-23T10:31:22;1.15;;;0.43;;
27365;SDS011;14837;57.148;-2.144;2023-03-23T10:33:49;3.78;;;0.70;;
27365;SDS011;14837;57.148;-2.144;2023-03-23T10:38:44;2.92;;;1.50;;
27365;SDS011;14837;57.148;-2.144;2023-03-23T10:41:11;1.45;;;0.68;;
27365;SDS011;14837;57.148;-2.144;2023-03-23T10:43:38;2.63;;;0.75;;
27365;SDS011;14837;57.148;-2.144;2023-03-23T10:46:29;2.40;;;1.05;;
27365;SDS011;14837;57.148;-2.144;2023-03-23T10:48:50;3.70;;;0.80;;
27365;SDS011;14837;57.148;-2.144;2023-03-23T10:51:17;1.58;;;0.63;;
27365;SDS011;14837;57.148;-2.144;2023-03-23T10:53:45;3.72;;;0.75;;
27365;SDS011;14837;57.148;-2.144;2023-03-23T10:56:26;1.42;;;1.05;;
27365;SDS011;14837;57.148;-2.144;2023-03-23T10:58:52;2.88;;;0.95;;
27365;SDS011;14837;57.148;-2.144;2023-03-23T11:01:19;1.13;;;0.63;;
27365;SDS011;14837;57.148;-2.144;2023-03-23T11:03:46;1.92;;;0.75;;
27365;SDS011;14837;57.148;-2.144;2023-03-23T11:06:23;2.33;;;0.65;;
27365;SDS011;14837;57.148;-2.144;2023-03-23T11:08:55;2.65;;;0.75;;
27365;SDS011;14837;57.148;-2.144;2023-03-23T11:13:57;3.30;;;0.93;;
27365;SDS011;14837;57.148;-2.144;2023-03-23T11:16:27;1.20;;;0.52;;
27365;SDS011;14837;57.148;-2.144;2023-03-23T11:18:53;4.68;;;0.90;;
27365;SDS011;14837;57.148;-2.144;2023-03-23T11:21:19;1.70;;;0.50;;
27365;SDS011;14837;57.148;-2.144;2023-03-23T11:24:20;2.00;;;0.70;;
27365;SDS011;14837;57.148;-2.144;2023-03-23T11:26:37;1.70;;;1.00;;
27365;SDS011;14837;57.148;-2.144;2023-03-23T11:29:09;1.42;;;0.68;;
27365;SDS011;14837;57.148;-2.144;2023-03-23T11:31:41;2.85;;;0.60;;
27365;SDS011;14837;57.148;-2.144;2023-03-23T11:34:17;2.70;;;0.88;;
27365;SDS011;14837;57.148;-2.144;2023-03-23T11:36:47;2.42;;;1.20;;
27365;SDS011;14837;57.148;-2.144;2023-03-23T11:39:26;2.78;;;0.85;;
27365;SDS011;14837;57.148;-2.144;2023-03-23T11:41:53;4.32;;;0.77;;
27365;SDS011;14837;57.148;-2.144;2023-03-23T11:44:20;1.08;;;0.50;;
27365;SDS011;14837;57.148;-2.144;2023-03-23T11:49:24;1.02;;;0.63;;
27365;SDS011;14837;57.148;-2.144;2023-03-23T11:51:55;1.42;;;0.65;;
27365;SDS011;14837;57.148;-2.144;2023-03-23T11:56:50;2.22;;;0.90;;
27365;SDS011;14837;57.148;-2.144;2023-03-23T11:59:26;2.70;;;0.80;;
27365;SDS011;14837;57.148;-2.144;2023-03-23T12:01:57;2.70;;;0.73;;
27365;SDS011;14837;57.148;-2.144;2023-03-23T12:22:01;2.53;;;0.77;;
27365;SDS011;14837;57.148;-2.144;2023-03-23T12:47:54;2.03;;;1.00;;
27365;SDS011;14837;57.148;-2.144;2023-03-23T12:52:51;3.70;;;1.40;;
27365;SDS011;14837;57.148;-2.144;2023-03-23T13:05:54;2.00;;;0.65;;
27365;SDS011;14837;57.148;-2.144;2023-03-23T13:08:23;2.70;;;0.98;;
27365;SDS011;14837;57.148;-2.144;2023-03-23T13:10:52;1.50;;;0.50;;
27365;SDS011;14837;57.148;-2.144;2023-03-23T13:13:20;0.65;;;0.50;;
27365;SDS011;14837;57.148;-2.144;2023-03-23T13:16:05;3.00;;;0.68;;
27365;SDS011;14837;57.148;-2.144;2023-03-23T13:18:47;3.22;;;0.70;;
27365;SDS011;14837;57.148;-2.144;2023-03-23T13:23:41;1.95;;;0.57;;
27365;SDS011;14837;57.148;-2.144;2023-03-23T13:26:09;4.47;;;0.60;;
27365;SDS011;14837;57.148;-2.144;2023-03-23T13:31:12;1.60;;;0.60;;
27365;SDS011;14837;57.148;-2.144;2023-03-23T13:33:38;2.08;;;0.75;;
27365;SDS011;14837;57.148;-2.144;2023-03-23T13:36:08;2.10;;;0.63;;
27365;SDS011;14837;57.148;-2.144;2023-03-23T13:38:35;2.60;;;0.65;;
27365;SDS011;14837;57.148;-2.144;2023-03-23T13:41:08;1.52;;;0.60;;
27365;SDS011;14837;57.148;-2.144;2023-03-23T13:43:35;1.95;;;0.65;;
27365;SDS011;14837;57.148;-2.144;2023-03-23T13:48:44;2.38;;;0.70;;
27365;SDS011;14837;57.148;-2.144;2023-03-23T13:51:23;3.17;;;0.77;;
27365;SDS011;14837;57.148;-2.144;2023-03-23T13:53:49;2.28;;;0.47;;
27365;SDS011;14837;57.148;-2.144;2023-03-23T13:58:46;3.03;;;0.98;;
27365;SDS011;14837;57.148;-2.144;2023-03-23T14:01:14;2.45;;;0.70;;
27365;SDS011;14837;57.148;-2.144;2023-03-23T14:03:42;3.03;;;0.80;;
27365;SDS011;14837;57.148;-2.144;2023-03-23T14:06:15;4.20;;;0.90;;
27365;SDS011;14837;57.148;-2.144;2023-03-23T14:08:42;4.75;;;0.80;;
27365;SDS011;14837;57.148;-2.144;2023-03-23T14:16:19;2.13;;;0.68;;
27365;SDS011;14837;57.148;-2.144;2023-03-23T14:18:55;3.63;;;1.02;;
27365;SDS011;14837;57.148;-2.144;2023-03-23T14:24:06;1.33;;;0.63;;
27365;SDS011;14837;57.148;-2.144;2023-03-23T14:26:34;3.47;;;0.82;;
27365;SDS011;14837;57.148;-2.144;2023-03-23T14:29:01;2.30;;;0.77;;
27365;SDS011;14837;57.148;-2.144;2023-03-23T14:31:27;2.03;;;0.77;;
27365;SDS011;14837;57.148;-2.144;2023-03-23T14:33:53;3.22;;;1.30;;
27365;SDS011;14837;57.148;-2.144;2023-03-23T14:36:23;4.30;;;1.23;;
27365;SDS011;14837;57.148;-2.144;2023-03-23T14:38:55;3.88;;;1.50;;
27365;SDS011;14837;57.148;-2.144;2023-03-23T14:41:22;4.18;;;1.33;;
27365;SDS011;14837;57.148;-2.144;2023-03-23T14:43:47;2.78;;;0.90;;
27365;SDS011;14837;57.148;-2.144;2023-03-23T14:46:13;3.70;;;1.02;;
27365;SDS011;14837;57.148;-2.144;2023-03-23T14:48:39;2.55;;;1.00;;
27365;SDS011;14837;57.148;-2.144;2023-03-23T14:51:04;4.65;;;1.38;;
27365;SDS011;14837;57.148;-2.144;2023-03-23T14:53:38;3.03;;;1.30;;
27365;SDS011;14837;57.148;-2.144;2023-03-23T14:56:14;5.60;;;1.27;;
27365;SDS011;14837;57.148;-2.144;2023-03-23T14:58:43;4.97;;;1.30;;
27365;SDS011;14837;57.148;-2.144;2023-03-23T15:01:09;4.47;;;1.70;;
27365;SDS011;14837;57.148;-2.144;2023-03-23T15:03:43;5.65;;;1.50;;
27365;SDS011;14837;57.148;-2.144;2023-03-23T15:06:13;5.55;;;1.45;;
27365;SDS011;14837;57.148;-2.144;2023-03-23T15:08:40;3.53;;;1.52;;
27365;SDS011;14837;57.148;-2.144;2023-03-23T15:13:37;5.35;;;1.92;;
27365;SDS011;14837;57.148;-2.144;2023-03-23T15:16:29;7.22;;;1.80;;
27365;SDS011;14837;57.148;-2.144;2023-03-23T15:18:54;5.15;;;1.65;;
27365;SDS011;14837;57.148;-2.144;2023-03-23T15:21:25;4.88;;;2.25;;
27365;SDS011;14837;57.148;-2.144;2023-03-23T15:23:51;4.47;;;1.35;;
27365;SDS011;14837;57.148;-2.144;2023-03-23T15:28:48;6.55;;;1.77;;
27365;SDS011;14837;57.148;-2.144;2023-03-23T15:31:13;6.00;;;1.80;;
27365;SDS011;14837;57.148;-2.144;2023-03-23T15:33:39;5.28;;;1.58;;
27365;SDS011;14837;57.148;-2.144;2023-03-23T15:36:09;4.07;;;1.50;;
27365;SDS011;14837;57.148;-2.144;2023-03-23T15:38:35;7.90;;;2.00;;
27365;SDS011;14837;57.148;-2.144;2023-03-23T15:41:18;4.63;;;1.40;;
27365;SDS011;14837;57.148;-2.144;2023-03-23T15:43:49;5.32;;;1.48;;
27365;SDS011;14837;57.148;-2.144;2023-03-23T15:51:28;3.95;;;1.45;;
27365;SDS011;14837;57.148;-2.144;2023-03-23T15:53:54;3.50;;;1.52;;
27365;SDS011;14837;57.148;-2.144;2023-03-23T15:56:19;4.72;;;1.60;;
27365;SDS011;14837;57.148;-2.144;2023-03-23T15:58:46;3.97;;;1.20;;
27365;SDS011;14837;57.148;-2.144;2023-03-23T16:01:18;5.28;;;1.75;;
27365;SDS011;14837;57.148;-2.144;2023-03-23T16:03:50;3.35;;;1.42;;
27365;SDS011;14837;57.148;-2.144;2023-03-23T16:06:18;6.43;;;2.17;;
27365;SDS011;14837;57.148;-2.144;2023-03-23T16:08:50;6.07;;;2.17;;
27365;SDS011;14837;57.148;-2.144;2023-03-23T16:11:20;2.75;;;1.40;;
27365;SDS011;14837;57.148;-2.144;2023-03-23T16:13:47;5.85;;;2.50;;
27365;SDS011;14837;57.148;-2.144;2023-03-23T16:16:17;4.07;;;1.30;;
27365;SDS011;14837;57.148;-2.144;2023-03-23T16:18:44;5.80;;;1.70;;
27365;SDS011;14837;57.148;-2.144;2023-03-23T16:21:11;6.22;;;1.45;;
27365;SDS011;14837;57.148;-2.144;2023-03-23T16:23:37;7.43;;;1.60;;
27365;SDS011;14837;57.148;-2.144;2023-03-23T16:26:06;9.80;;;2.10;;
27365;SDS011;14837;57.148;-2.144;2023-03-23T16:28:32;4.53;;;1.60;;
27365;SDS011;14837;57.148;-2.144;2023-03-23T16:30:59;5.32;;;1.85;;
27365;SDS011;14837;57.148;-2.144;2023-03-23T16:33:25;5.10;;;1.60;;
27365;SDS011;14837;57.148;-2.144;2023-03-23T16:35:52;5.45;;;1.40;;
27365;SDS011;14837;57.148;-2.144;2023-03-23T16:38:18;5.03;;;1.30;;
27365;SDS011;14837;57.148;-2.144;2023-03-23T16:40:45;6.38;;;2.65;;
27365;SDS011;14837;57.148;-2.144;2023-03-23T16:43:12;8.93;;;3.50;;
27365;SDS011;14837;57.148;-2.144;2023-03-23T16:45:39;3.53;;;1.38;;